Terminal Aerodrome Forecast
Issued by NWS Twin Cities, MN

Home | Current Version | Previous Version | Graphics & Text | Print | Product List | Glossary On
Versions: 1 2 3 4 5 6 7 8 9 10 11 12 13 14 15 16 17 18 19 20 21
436
FTUS43 KMPX 081740
TAFEAU
TAF
KEAU 081740Z 0818/0918 27006KT P6SM OVC015
     FM082000 25008KT P6SM SCT015 BKN150
     FM090000 25008KT 3SM -SN OVC015
     FM090100 26008KT 1SM -SN OVC010
     FM090400 31012G22KT 3SM -SN OVC015
     FM090600 32010KT P6SM BKN020=

USA.gov is the U.S. government's official web portal to all federal, state and local government web resources and services.